createdAt,value
2019-02-19T00:01:26.122Z,64.20
2019-02-19T00:03:54.601Z,64.60
2019-02-19T00:06:23.052Z,65.20
2019-02-19T00:08:51.492Z,66.10
2019-02-19T00:11:20.036Z,65.60
2019-02-19T00:13:48.490Z,65.80
2019-02-19T00:16:16.963Z,64.80
2019-02-19T00:18:45.386Z,64.90
2019-02-19T00:21:13.894Z,64.90
2019-02-19T00:23:42.392Z,64.90
2019-02-19T00:26:17.886Z,65.00
2019-02-19T00:28:46.335Z,65.10
2019-02-19T00:31:14.781Z,66.10
2019-02-19T00:33:43.204Z,65.10
2019-02-19T00:36:11.639Z,64.90
2019-02-19T00:38:40.062Z,65.70
2019-02-19T00:41:08.508Z,65.00
2019-02-19T00:43:36.968Z,65.40
2019-02-19T00:46:05.461Z,66.40
2019-02-19T00:48:33.900Z,65.80
2019-02-19T00:51:02.381Z,65.70
2019-02-19T00:53:30.826Z,66.00
2019-02-19T00:55:59.246Z,65.70
2019-02-19T00:58:27.696Z,65.60
2019-02-19T01:00:56.117Z,66.00
2019-02-19T01:03:24.625Z,66.00
2019-02-19T01:05:53.058Z,66.10
2019-02-19T01:08:21.650Z,66.20
2019-02-19T01:10:50.080Z,66.10
2019-02-19T01:13:18.529Z,66.30
2019-02-19T01:15:46.973Z,66.60
2019-02-19T01:18:15.466Z,67.30
2019-02-19T01:20:43.881Z,67.60
2019-02-19T01:23:12.409Z,66.80
2019-02-19T01:25:40.821Z,67.80
2019-02-19T01:28:09.366Z,67.30
2019-02-19T01:30:37.856Z,67.10
2019-02-19T01:33:06.334Z,67.10
2019-02-19T01:35:34.760Z,67.80
2019-02-19T01:38:03.190Z,68.20
2019-02-19T01:40:31.624Z,67.30
2019-02-19T01:43:00.052Z,67.40
2019-02-19T01:45:34.155Z,68.00
2019-02-19T01:48:00.190Z,67.70
2019-02-19T01:50:28.624Z,67.90
2019-02-19T01:52:57.031Z,67.90
2019-02-19T01:55:25.556Z,68.10
2019-02-19T01:57:53.986Z,68.10
2019-02-19T02:00:22.447Z,68.60
2019-02-19T02:02:50.937Z,68.40
2019-02-19T02:05:19.396Z,68.50
2019-02-19T02:07:47.814Z,68.80
2019-02-19T02:10:16.293Z,69.00
2019-02-19T02:12:44.704Z,69.40
2019-02-19T02:15:13.213Z,68.80
2019-02-19T02:17:41.630Z,68.60
2019-02-19T02:20:10.305Z,69.20
2019-02-19T02:22:38.737Z,69.00
2019-02-19T02:25:07.249Z,69.40
2019-02-19T02:27:35.667Z,69.70
2019-02-19T02:30:05.676Z,69.10
2019-02-19T02:32:34.179Z,69.10
2019-02-19T02:35:02.652Z,69.10
2019-02-19T02:37:31.073Z,69.00
2019-02-19T02:39:59.517Z,68.80
2019-02-19T02:42:27.940Z,69.40
2019-02-19T02:44:56.389Z,69.40
2019-02-19T02:47:24.832Z,69.40
2019-02-19T02:49:53.264Z,69.30
2019-02-19T02:52:21.791Z,69.20
2019-02-19T02:54:50.243Z,69.30
2019-02-19T02:57:18.680Z,69.40
2019-02-19T02:59:47.105Z,69.60
2019-02-19T03:02:15.554Z,69.90
2019-02-19T03:04:44.003Z,69.90
2019-02-19T03:07:23.033Z,69.80
2019-02-19T03:09:51.576Z,70.30
2019-02-19T03:12:20.080Z,70.00
2019-02-19T03:14:48.512Z,69.90
2019-02-19T03:17:17.225Z,70.40
2019-02-19T03:19:45.735Z,69.50
2019-02-19T03:22:14.165Z,69.50
2019-02-19T03:24:42.662Z,70.10
2019-02-19T03:27:11.112Z,70.00
2019-02-19T03:29:39.533Z,69.90
2019-02-19T03:32:07.984Z,69.80
2019-02-19T03:34:36.508Z,69.90
2019-02-19T03:37:05.036Z,70.20
2019-02-19T03:39:33.455Z,70.60
2019-02-19T03:42:02.011Z,70.40
2019-02-19T03:44:30.517Z,70.40
2019-02-19T03:46:58.947Z,70.20
2019-02-19T03:49:27.406Z,70.20
2019-02-19T03:51:55.853Z,70.40
2019-02-19T03:54:24.296Z,70.60
2019-02-19T03:56:52.795Z,70.50
2019-02-19T03:59:21.472Z,70.40
2019-02-19T04:01:49.960Z,70.60
2019-02-19T04:04:18.445Z,70.60
2019-02-19T04:06:46.869Z,70.60
2019-02-19T04:09:15.307Z,71.00
2019-02-19T04:11:43.743Z,71.00
2019-02-19T04:14:12.181Z,71.90
2019-02-19T04:16:40.608Z,72.20
2019-02-19T04:19:09.113Z,71.60
2019-02-19T04:21:37.551Z,72.00
2019-02-19T04:24:05.992Z,72.30
2019-02-19T04:26:34.416Z,72.40
2019-02-19T04:29:02.924Z,71.80
2019-02-19T04:31:31.820Z,72.20
2019-02-19T04:34:00.351Z,72.40
2019-02-19T04:36:28.802Z,72.70
2019-02-19T04:38:57.233Z,72.90
2019-02-19T04:41:25.674Z,72.50
2019-02-19T04:43:54.109Z,73.30
2019-02-19T04:46:31.319Z,72.80
2019-02-19T04:48:52.680Z,72.70
2019-02-19T04:51:21.100Z,73.00
2019-02-19T04:53:49.527Z,72.60
2019-02-19T04:56:17.977Z,72.80
2019-02-19T04:58:46.420Z,73.00
2019-02-19T05:01:14.848Z,73.00
2019-02-19T05:03:43.268Z,72.70
2019-02-19T05:06:11.717Z,72.60
2019-02-19T05:08:40.136Z,72.60
2019-02-19T05:11:08.832Z,73.20
2019-02-19T05:13:37.257Z,72.70
2019-02-19T05:16:05.694Z,72.70
2019-02-19T05:18:34.106Z,72.90
2019-02-19T05:21:02.548Z,73.20
2019-02-19T05:23:30.974Z,73.50
2019-02-19T05:25:59.521Z,73.90
2019-02-19T05:28:27.937Z,74.10
2019-02-19T05:30:56.370Z,74.00
2019-02-19T05:33:24.801Z,73.50
2019-02-19T05:35:53.293Z,73.70
2019-02-19T05:38:21.713Z,73.40
2019-02-19T05:40:50.128Z,73.20
2019-02-19T05:43:18.564Z,73.40
2019-02-19T05:45:46.993Z,73.40
2019-02-19T05:48:15.442Z,73.70
2019-02-19T05:50:43.869Z,74.70
2019-02-19T05:53:12.316Z,74.80
2019-02-19T05:55:40.720Z,75.00
2019-02-19T05:58:09.156Z,75.50
2019-02-19T06:00:37.569Z,75.20
2019-02-19T06:03:06.005Z,75.20
2019-02-19T06:05:34.461Z,75.10
2019-02-19T06:08:02.898Z,75.80
2019-02-19T06:10:31.345Z,75.50
2019-02-19T06:12:59.777Z,75.30
2019-02-19T06:15:28.207Z,75.70
2019-02-19T06:17:56.640Z,75.80
2019-02-19T06:20:25.074Z,76.00
2019-02-19T06:22:53.522Z,76.50
2019-02-19T06:25:21.958Z,76.40
2019-02-19T06:27:50.486Z,76.40
2019-02-19T06:30:18.899Z,76.90
2019-02-19T06:32:47.329Z,77.00
2019-02-19T06:35:15.761Z,77.10
2019-02-19T06:37:44.191Z,77.50
2019-02-19T06:40:26.168Z,77.60
2019-02-19T06:42:54.613Z,77.60
2019-02-19T06:45:23.034Z,78.30
2019-02-19T06:47:51.516Z,77.90
2019-02-19T06:50:20.005Z,77.20
2019-02-19T06:52:48.444Z,77.00
2019-02-19T06:55:16.890Z,76.80
2019-02-19T06:57:45.311Z,76.50
2019-02-19T07:00:14.209Z,76.00
2019-02-19T07:02:47.216Z,75.70
2019-02-19T07:05:19.999Z,75.30
2019-02-19T07:07:48.406Z,75.10
2019-02-19T07:10:16.844Z,74.80
2019-02-19T07:12:45.348Z,75.30
2019-02-19T07:15:13.798Z,75.50
2019-02-19T07:17:42.208Z,74.80
2019-02-19T07:20:10.996Z,74.70
2019-02-19T07:22:39.489Z,75.00
2019-02-19T07:25:10.276Z,75.00
2019-02-19T07:27:38.672Z,74.50
2019-02-19T07:30:09.856Z,74.90
2019-02-19T07:32:38.367Z,75.30
2019-02-19T07:35:08.562Z,74.50
2019-02-19T07:37:37.089Z,74.20
2019-02-19T07:40:07.591Z,74.00
2019-02-19T07:42:36.050Z,73.70
2019-02-19T07:45:07.269Z,73.80
2019-02-19T07:47:35.677Z,73.90
2019-02-19T07:50:05.666Z,74.70
2019-02-19T07:52:34.097Z,73.70
2019-02-19T07:55:02.696Z,73.40
2019-02-19T07:57:31.104Z,72.90
2019-02-19T07:59:59.628Z,73.20
2019-02-19T08:02:28.128Z,73.90
2019-02-19T08:04:56.581Z,74.20
2019-02-19T08:07:24.996Z,74.70
2019-02-19T08:09:53.477Z,74.90
2019-02-19T08:12:21.966Z,75.40
2019-02-19T08:14:50.369Z,75.00
2019-02-19T08:17:18.832Z,74.40
2019-02-19T08:19:48.780Z,73.60
2019-02-19T08:22:17.377Z,73.20
2019-02-19T08:24:45.797Z,72.50
2019-02-19T08:27:14.237Z,72.30
2019-02-19T08:29:42.649Z,72.40
2019-02-19T08:32:11.103Z,72.60
2019-02-19T08:34:39.524Z,72.80
2019-02-19T08:37:07.972Z,73.10
2019-02-19T08:39:36.416Z,74.00
2019-02-19T08:42:04.939Z,74.30
2019-02-19T08:44:33.373Z,74.50
2019-02-19T08:47:01.817Z,74.50
2019-02-19T08:49:30.254Z,74.30
2019-02-19T08:51:58.707Z,74.40
2019-02-19T08:54:27.129Z,74.70
2019-02-19T08:56:55.613Z,74.60
2019-02-19T08:59:24.068Z,74.70
2019-02-19T09:01:52.510Z,74.40
2019-02-19T09:04:20.957Z,74.00
2019-02-19T09:06:49.375Z,74.30
2019-02-19T09:09:17.810Z,73.40
2019-02-19T09:11:46.235Z,72.80
2019-02-19T09:14:14.662Z,73.10
2019-02-19T09:16:43.093Z,73.10
2019-02-19T09:19:11.549Z,72.80
2019-02-19T09:21:39.972Z,72.60
2019-02-19T09:24:09.695Z,72.50
2019-02-19T09:26:38.307Z,72.20
2019-02-19T09:29:06.761Z,70.90
2019-02-19T09:31:35.213Z,70.30
2019-02-19T09:34:03.645Z,71.00
2019-02-19T09:36:32.078Z,70.30
2019-02-19T09:39:00.530Z,71.10
2019-02-19T09:41:28.955Z,71.40
2019-02-19T09:43:57.393Z,71.50
2019-02-19T09:46:25.822Z,71.10
2019-02-19T09:48:54.259Z,70.90
2019-02-19T09:51:22.677Z,70.70
2019-02-19T09:53:51.112Z,70.30
2019-02-19T09:56:19.543Z,68.50
2019-02-19T09:58:47.976Z,67.80
2019-02-19T10:01:16.462Z,67.50
2019-02-19T10:03:44.957Z,66.50
2019-02-19T10:06:13.394Z,65.90
2019-02-19T10:08:41.812Z,65.40
2019-02-19T10:11:10.253Z,65.20
2019-02-19T10:13:38.661Z,65.60
2019-02-19T10:16:07.863Z,65.60
2019-02-19T10:18:36.294Z,65.40
2019-02-19T10:21:04.725Z,65.20
2019-02-19T10:23:33.132Z,64.90
2019-02-19T10:26:01.669Z,64.30
2019-02-19T10:28:30.076Z,63.70
2019-02-19T10:30:58.510Z,62.90
2019-02-19T10:33:27.006Z,62.70
2019-02-19T10:35:55.445Z,62.20
2019-02-19T10:38:23.936Z,62.00
2019-02-19T10:40:52.380Z,61.30
2019-02-19T10:43:20.792Z,61.10
2019-02-19T10:46:08.641Z,60.10
2019-02-19T10:48:37.071Z,59.80
2019-02-19T10:51:05.565Z,59.50
2019-02-19T10:53:33.995Z,59.20
2019-02-19T10:56:02.426Z,58.70
2019-02-19T10:58:30.885Z,58.30
2019-02-19T11:00:59.333Z,57.90
2019-02-19T11:03:27.824Z,57.50
2019-02-19T11:05:56.345Z,57.10
2019-02-19T11:08:24.781Z,57.00
2019-02-19T11:10:53.231Z,56.80
2019-02-19T11:13:21.726Z,56.40
2019-02-19T11:15:50.219Z,56.50
2019-02-19T11:18:26.223Z,56.40
2019-02-19T11:20:48.937Z,56.00
2019-02-19T11:23:17.444Z,55.80
2019-02-19T11:25:45.876Z,55.40
2019-02-19T11:28:14.316Z,54.90
2019-02-19T11:30:42.716Z,54.20
2019-02-19T11:33:11.228Z,54.20
2019-02-19T11:35:39.658Z,54.20
2019-02-19T11:38:08.136Z,54.60
2019-02-19T11:40:36.542Z,54.80
2019-02-19T11:43:05.048Z,55.30
2019-02-19T11:45:33.458Z,55.70
2019-02-19T11:48:01.911Z,56.10
2019-02-19T11:50:30.334Z,56.20
2019-02-19T11:52:58.778Z,56.40
2019-02-19T11:55:27.266Z,56.70
2019-02-19T11:57:55.688Z,56.90
2019-02-19T12:00:31.853Z,57.20
2019-02-19T12:03:00.304Z,57.60
2019-02-19T12:05:28.745Z,57.80
2019-02-19T12:07:57.188Z,57.90
2019-02-19T12:10:25.599Z,58.10
2019-02-19T12:12:54.049Z,58.50
2019-02-19T12:15:22.484Z,58.70
2019-02-19T12:17:50.918Z,58.90
2019-02-19T12:20:19.453Z,59.20
2019-02-19T12:22:47.933Z,60.20
2019-02-19T12:25:16.379Z,59.90
2019-02-19T12:27:44.802Z,60.10
2019-02-19T12:30:18.424Z,60.30
2019-02-19T12:32:46.929Z,60.70
2019-02-19T12:35:15.373Z,61.10
2019-02-19T12:37:43.820Z,61.60
2019-02-19T12:40:13.291Z,62.20
2019-02-19T12:42:41.802Z,62.50
2019-02-19T12:45:15.199Z,63.00
2019-02-19T12:47:43.702Z,63.10
2019-02-19T12:50:18.859Z,63.30
2019-02-19T12:52:47.271Z,63.70
2019-02-19T12:55:15.866Z,63.70
2019-02-19T12:57:44.287Z,63.80
2019-02-19T13:00:17.025Z,64.00
2019-02-19T13:02:45.628Z,64.30
2019-02-19T13:05:15.317Z,64.40
2019-02-19T13:07:43.763Z,64.50
2019-02-19T13:10:12.733Z,64.70
2019-02-19T13:12:41.260Z,65.00
2019-02-19T13:15:14.690Z,65.00
2019-02-19T13:17:43.128Z,65.20
2019-02-19T13:20:14.921Z,65.50
2019-02-19T13:22:43.439Z,65.50
2019-02-19T13:25:12.226Z,65.70
2019-02-19T13:27:40.817Z,65.90
2019-02-19T13:30:16.709Z,66.00
2019-02-19T13:32:45.145Z,66.20
2019-02-19T13:35:13.932Z,66.30
2019-02-19T13:37:42.376Z,66.50
2019-02-19T13:40:14.868Z,66.60
2019-02-19T13:42:43.383Z,66.80
2019-02-19T13:45:15.476Z,66.90
2019-02-19T13:47:44.084Z,67.80
2019-02-19T13:50:18.270Z,67.10
2019-02-19T13:52:51.102Z,67.40
2019-02-19T13:55:21.185Z,67.50
2019-02-19T13:57:49.649Z,67.70
2019-02-19T14:00:19.694Z,67.80
2019-02-19T14:02:48.216Z,68.00
2019-02-19T14:05:16.667Z,68.20
2019-02-19T14:07:45.080Z,68.30
2019-02-19T14:10:13.525Z,68.50
2019-02-19T14:12:42.000Z,68.50
2019-02-19T14:15:13.227Z,68.70
2019-02-19T14:17:41.721Z,68.80
2019-02-19T14:20:14.858Z,68.80
2019-02-19T14:23:01.152Z,68.90
2019-02-19T14:25:47.300Z,68.90
2019-02-19T14:28:23.189Z,68.80
2019-02-19T14:31:02.067Z,68.90
2019-02-19T14:33:32.164Z,68.80
2019-02-19T14:36:08.170Z,68.80
2019-02-19T14:38:38.271Z,68.90
2019-02-19T14:41:14.473Z,68.90
2019-02-19T14:43:53.294Z,68.90
2019-02-19T14:46:35.483Z,68.90
2019-02-19T14:49:17.716Z,68.90
2019-02-19T14:51:50.780Z,68.90
2019-02-19T14:54:29.649Z,68.80
2019-02-19T14:56:59.701Z,68.90
2019-02-19T14:59:32.777Z,68.70
2019-02-19T15:02:02.832Z,68.70
2019-02-19T15:04:41.949Z,68.70
2019-02-19T15:07:20.777Z,68.70
2019-02-19T15:09:53.870Z,68.80
2019-02-19T15:12:26.662Z,68.90
2019-02-19T15:15:02.930Z,69.00
2019-02-19T15:17:44.700Z,69.00
2019-02-19T15:20:20.606Z,69.00
2019-02-19T15:22:50.861Z,69.00
2019-02-19T15:25:37.251Z,69.00
2019-02-19T15:28:19.363Z,69.00
2019-02-19T15:30:58.608Z,69.20
2019-02-19T15:33:31.199Z,69.30
2019-02-19T15:36:01.288Z,69.30
2019-02-19T15:38:31.361Z,69.40
2019-02-19T15:41:07.161Z,69.50
2019-02-19T15:43:45.780Z,69.60
2019-02-19T15:46:18.347Z,69.70
2019-02-19T15:48:51.243Z,69.70
2019-02-19T15:51:33.242Z,69.90
2019-02-19T15:54:28.448Z,69.90
2019-02-19T15:56:58.593Z,70.00
2019-02-19T15:59:43.493Z,70.20
2019-02-19T16:02:19.316Z,70.20
2019-02-19T16:05:04.243Z,70.30
2019-02-19T16:07:50.409Z,70.40
2019-02-19T16:10:35.368Z,70.30
2019-02-19T16:13:08.202Z,70.40
2019-02-19T16:15:44.125Z,70.50
2019-02-19T16:18:22.829Z,70.70
2019-02-19T16:20:52.892Z,70.70
2019-02-19T16:23:25.554Z,70.90
2019-02-19T16:25:58.265Z,71.00
2019-02-19T16:28:31.520Z,71.10
2019-02-19T16:31:01.667Z,71.80
2019-02-19T16:33:46.489Z,71.20
2019-02-19T16:36:19.372Z,71.20
2019-02-19T16:38:49.565Z,71.20
2019-02-19T16:41:31.500Z,71.30
2019-02-19T16:44:10.359Z,71.30
2019-02-19T16:46:40.494Z,71.40
2019-02-19T16:49:10.587Z,71.50
2019-02-19T16:51:49.405Z,71.60
2019-02-19T16:54:19.506Z,71.80
2019-02-19T16:56:55.340Z,71.80
2019-02-19T16:59:28.377Z,71.90
2019-02-19T17:02:13.570Z,71.90
2019-02-19T17:04:43.756Z,71.90
2019-02-19T17:07:13.891Z,72.00
2019-02-19T17:09:46.713Z,72.00
2019-02-19T17:12:22.576Z,72.10
2019-02-19T17:14:55.383Z,72.10
2019-02-19T17:17:25.457Z,72.20
2019-02-19T17:20:01.633Z,72.40
2019-02-19T17:22:40.936Z,72.40
2019-02-19T17:25:20.105Z,72.40
2019-02-19T17:28:08.321Z,72.60
2019-02-19T17:30:41.390Z,72.70
2019-02-19T17:33:11.510Z,72.80
2019-02-19T17:35:41.616Z,73.20
2019-02-19T17:38:17.234Z,73.30
2019-02-19T17:40:58.966Z,73.30
2019-02-19T17:43:40.820Z,73.50
2019-02-19T17:46:13.648Z,73.60
2019-02-19T17:48:43.724Z,73.70
2019-02-19T17:51:13.866Z,73.90
2019-02-19T17:53:43.964Z,74.10
2019-02-19T17:56:29.749Z,74.20
2019-02-19T17:59:05.660Z,74.30
2019-02-19T18:01:41.889Z,74.50
2019-02-19T18:04:17.754Z,74.60
2019-02-19T18:07:04.007Z,74.60
2019-02-19T18:09:34.182Z,74.70
2019-02-19T18:12:04.355Z,75.00
2019-02-19T18:14:34.426Z,75.20
2019-02-19T18:17:10.346Z,75.40
2019-02-19T18:19:38.879Z,75.30
2019-02-19T18:22:07.382Z,75.40
2019-02-19T18:24:35.867Z,75.60
2019-02-19T18:27:04.435Z,75.70
2019-02-19T18:29:33.017Z,76.20
2019-02-19T18:32:01.458Z,76.90
2019-02-19T18:34:29.953Z,76.30
2019-02-19T18:36:58.469Z,76.40
2019-02-19T18:39:26.950Z,76.30
2019-02-19T18:41:55.412Z,77.60
2019-02-19T18:44:24.275Z,77.70
2019-02-19T18:46:52.842Z,77.60
2019-02-19T18:49:21.391Z,77.70
2019-02-19T18:51:49.912Z,78.10
2019-02-19T18:54:18.471Z,78.10
2019-02-19T18:56:47.042Z,77.80
2019-02-19T18:59:15.550Z,77.60
2019-02-19T19:01:44.075Z,77.70
2019-02-19T19:04:12.548Z,77.60
2019-02-19T19:06:41.050Z,77.50
2019-02-19T19:09:10.587Z,77.70
2019-02-19T19:11:39.042Z,79.00
2019-02-19T19:14:07.608Z,77.90
2019-02-19T19:16:36.044Z,78.10
2019-02-19T19:19:04.588Z,78.40
2019-02-19T19:21:33.033Z,78.60
2019-02-19T19:24:01.471Z,79.30
2019-02-19T19:26:29.997Z,78.80
2019-02-19T19:28:58.519Z,78.90
2019-02-19T19:31:33.198Z,78.80
2019-02-19T19:33:57.414Z,79.00
2019-02-19T19:36:25.998Z,79.50
2019-02-19T19:38:54.465Z,80.00
2019-02-19T19:41:23.001Z,80.30
2019-02-19T19:43:51.431Z,80.20
2019-02-19T19:46:19.930Z,80.00
2019-02-19T19:48:48.469Z,80.10
2019-02-19T19:51:17.400Z,80.40
2019-02-19T19:53:45.985Z,80.50
2019-02-19T19:56:14.531Z,80.30
2019-02-19T19:58:42.948Z,80.80
2019-02-19T20:01:11.404Z,80.90
2019-02-19T20:03:40.003Z,81.00
2019-02-19T20:06:08.569Z,80.20
2019-02-19T20:08:37.110Z,80.40
2019-02-19T20:11:05.747Z,80.10
2019-02-19T20:13:34.318Z,80.00
2019-02-19T20:16:02.880Z,80.10
2019-02-19T20:18:38.918Z,80.50
2019-02-19T20:21:01.673Z,81.00
2019-02-19T20:23:30.297Z,82.10
2019-02-19T20:25:58.778Z,81.70
2019-02-19T20:28:27.439Z,81.40
2019-02-19T20:30:55.951Z,81.60
2019-02-19T20:33:24.516Z,81.40
2019-02-19T20:35:52.982Z,82.10
2019-02-19T20:38:23.749Z,81.60
2019-02-19T20:40:53.011Z,81.60
2019-02-19T20:43:21.470Z,81.70
2019-02-19T20:45:50.068Z,81.50
2019-02-19T20:48:18.703Z,81.90
2019-02-19T20:50:47.259Z,81.70
2019-02-19T20:53:15.801Z,81.90
2019-02-19T20:55:44.370Z,81.50
2019-02-19T20:58:12.860Z,81.60
2019-02-19T21:00:41.394Z,82.30
2019-02-19T21:03:09.924Z,83.10
2019-02-19T21:05:38.454Z,83.20
2019-02-19T21:08:06.986Z,82.40
2019-02-19T21:10:35.427Z,82.30
2019-02-19T21:13:03.977Z,82.20
2019-02-19T21:15:32.485Z,82.40
2019-02-19T21:18:01.083Z,82.60
2019-02-19T21:20:29.550Z,82.30
2019-02-19T21:22:58.000Z,83.00
2019-02-19T21:25:31.007Z,82.90
2019-02-19T21:27:56.633Z,82.50
2019-02-19T21:30:25.122Z,82.70
2019-02-19T21:32:53.597Z,82.20
2019-02-19T21:35:22.186Z,82.70
2019-02-19T21:37:50.724Z,82.60
2019-02-19T21:40:19.208Z,83.00
2019-02-19T21:42:47.661Z,82.80
2019-02-19T21:45:16.184Z,82.90
2019-02-19T21:47:44.633Z,82.40
2019-02-19T21:50:15.580Z,82.80
2019-02-19T21:52:43.957Z,82.90
2019-02-19T21:55:12.875Z,82.50
2019-02-19T21:57:41.459Z,82.60
2019-02-19T22:00:13.615Z,82.70
2019-02-19T22:02:42.168Z,82.70
2019-02-19T22:05:10.997Z,82.60
2019-02-19T22:07:39.511Z,82.50
2019-02-19T22:10:12.867Z,82.70
2019-02-19T22:12:41.449Z,82.50
2019-02-19T22:15:12.231Z,82.50
2019-02-19T22:17:40.753Z,83.50
2019-02-19T22:20:19.120Z,83.70
2019-02-19T22:22:47.570Z,83.50
2019-02-19T22:25:16.000Z,83.50
2019-02-19T22:27:44.458Z,83.10
2019-02-19T22:30:13.016Z,82.90
2019-02-19T22:32:41.980Z,83.10
2019-02-19T22:35:10.416Z,83.20
2019-02-19T22:37:38.879Z,83.20
2019-02-19T22:40:08.468Z,83.90
2019-02-19T22:42:36.925Z,83.80
2019-02-19T22:45:07.199Z,84.90
2019-02-19T22:47:35.657Z,84.20
2019-02-19T22:50:07.050Z,84.10
2019-02-19T22:52:35.576Z,83.90
2019-02-19T22:55:06.706Z,83.70
2019-02-19T22:57:35.177Z,83.70
2019-02-19T23:00:09.042Z,84.10
2019-02-19T23:02:37.513Z,84.50
2019-02-19T23:05:06.902Z,84.90
2019-02-19T23:07:35.420Z,85.20
2019-02-19T23:10:05.490Z,85.90
2019-02-19T23:12:34.034Z,86.10
2019-02-19T23:15:02.495Z,85.80
2019-02-19T23:17:30.927Z,86.00
2019-02-19T23:20:01.420Z,86.90
2019-02-19T23:22:29.704Z,86.50
2019-02-19T23:24:58.216Z,86.10
2019-02-19T23:27:26.658Z,86.90
2019-02-19T23:29:55.199Z,86.50
2019-02-19T23:32:23.716Z,86.00
2019-02-19T23:34:53.861Z,85.60
2019-02-19T23:37:22.302Z,85.60
2019-02-19T23:39:50.867Z,85.60
2019-02-19T23:42:19.397Z,85.70
2019-02-19T23:44:47.963Z,86.20
2019-02-19T23:47:16.498Z,86.10
2019-02-19T23:49:45.094Z,86.30
2019-02-19T23:52:13.509Z,86.50
2019-02-19T23:54:42.689Z,86.30
2019-02-19T23:57:11.162Z,86.60
2019-02-19T23:59:39.605Z,86.40
